Big Bear Station Historical Data
Daily Summary for August 4, 2017 Units:  English    Metric   Both
« Previous Day
Next Day »
Daily Weekly Monthly Yearly Custom
  High: Low: Average:
Temperature: 79.5 °F 54.5 °F 65.2 °F
Dew Point: 60.0 °F 41.2 °F 54.5 °F
Humidity: 98 % 45 % 71 %
Wind Speed: 9.9 mph 0.0 mph 1.9 mph
Wind Gust: -999.0 mph - -
Wind:- - SW
Pressure: 30.34 in 30.27 in -
Precipitation: 0.00 in    
Historical Graphs
 
 
Tabular Data for August 4, 2017
Time Temperature Dew Point Pressure Wind Wind Speed Wind Gust Humidity Rainfall Rate (Hourly)
00:09 57.6 °F 55.3 °F 30.34 in Calm   -999.0 mph 92 % 0 in
00:24 57.4 °F 55.1 °F 30.34 in Calm   -999.0 mph 92 % 0 in
00:39 57.2 °F 55.2 °F 30.34 in Calm   -999.0 mph 93 % 0 in
00:55 57.0 °F 55.0 °F 30.33 in Calm   -999.0 mph 93 % 0 in
01:10 57.0 °F 55.0 °F 30.33 in Calm   -999.0 mph 93 % 0 in
01:25 56.7 °F 55.0 °F 30.33 in Calm   -999.0 mph 94 % 0 in
01:40 56.5 °F 54.8 °F 30.33 in Calm   -999.0 mph 94 % 0 in
01:55 56.3 °F 54.6 °F 30.33 in Calm   -999.0 mph 94 % 0 in
02:11 56.5 °F 55.1 °F 30.32 in Calm   -999.0 mph 95 % 0 in
02:26 56.3 °F 54.9 °F 30.32 in Calm   -999.0 mph 95 % 0 in
02:41 56.3 °F 54.9 °F 30.32 in Calm   -999.0 mph 95 % 0 in
02:56 55.9 °F 54.5 °F 30.32 in Calm   -999.0 mph 95 % 0 in
03:11 56.3 °F 55.2 °F 30.32 in Calm   -999.0 mph 96 % 0 in
03:27 56.3 °F 55.2 °F 30.32 in South 2.2 mph -999.0 mph 96 % 0 in
03:42 55.8 °F 54.7 °F 30.32 in Calm   -999.0 mph 96 % 0 in
03:57 55.9 °F 54.8 °F 30.31 in South 1.7 mph -999.0 mph 96 % 0 in
04:12 55.8 °F 54.7 °F 30.31 in Calm   -999.0 mph 96 % 0 in
04:28 55.6 °F 54.8 °F 30.30 in South 1.1 mph -999.0 mph 97 % 0 in
04:43 55.4 °F 54.6 °F 30.30 in South 1.7 mph -999.0 mph 97 % 0 in
04:58 55.4 °F 54.6 °F 30.31 in SSE 1.1 mph -999.0 mph 97 % 0 in
05:13 55.2 °F 54.4 °F 30.31 in Calm   -999.0 mph 97 % 0 in
05:28 55.2 °F 54.4 °F 30.30 in South 1.7 mph -999.0 mph 97 % 0 in
05:44 55.0 °F 54.2 °F 30.30 in Calm   -999.0 mph 97 % 0 in
05:59 54.9 °F 54.1 °F 30.31 in South 1.7 mph -999.0 mph 97 % 0 in
06:14 54.5 °F 53.7 °F 30.30 in Calm   -999.0 mph 97 % 0 in
06:29 55.0 °F 54.4 °F 30.30 in South 2.2 mph -999.0 mph 98 % 0 in
06:44 55.6 °F 55.0 °F 30.31 in Calm   -999.0 mph 98 % 0 in
07:00 56.1 °F 55.5 °F 30.31 in South 1.7 mph -999.0 mph 98 % 0 in
07:15 56.7 °F 56.1 °F 30.31 in Calm   -999.0 mph 98 % 0 in
07:30 57.0 °F 56.2 °F 30.32 in Calm   -999.0 mph 97 % 0 in
07:45 58.1 °F 56.4 °F 30.32 in NNW 3.7 mph -999.0 mph 94 % 0 in
08:00 59.2 °F 56.3 °F 30.32 in WNW 1.1 mph -999.0 mph 90 % 0 in
08:16 60.1 °F 55.6 °F 30.33 in NW 1.7 mph -999.0 mph 85 % 0 in
08:31 61.3 °F 55.8 °F 30.33 in West 1.7 mph -999.0 mph 82 % 0 in
08:46 61.7 °F 56.5 °F 30.33 in WNW 2.2 mph -999.0 mph 83 % 0 in
09:01 63.5 °F 57.6 °F 30.33 in NW 3.2 mph -999.0 mph 81 % 0 in
09:16 64.9 °F 57.5 °F 30.33 in NNW 3.2 mph -999.0 mph 77 % 0 in
09:32 65.8 °F 57.7 °F 30.33 in NW 5.3 mph -999.0 mph 75 % 0 in
09:47 67.5 °F 58.9 °F 30.33 in West 3.7 mph -999.0 mph 74 % 0 in
10:02 68.2 °F 58.8 °F 30.33 in NNW 3.7 mph -999.0 mph 72 % 0 in
10:17 68.7 °F 59.3 °F 30.33 in Calm   -999.0 mph 72 % 0 in
10:33 69.1 °F 58.9 °F 30.33 in NNE 4.2 mph -999.0 mph 70 % 0 in
10:48 70.3 °F 58.4 °F 30.34 in West 2.7 mph -999.0 mph 66 % 0 in
11:03 71.4 °F 58.6 °F 30.34 in WNW 2.7 mph -999.0 mph 64 % 0 in
11:18 72.9 °F 60.0 °F 30.33 in NNW 3.7 mph -999.0 mph 64 % 0 in
11:34 73.6 °F 58.4 °F 30.33 in NW 4.7 mph -999.0 mph 59 % 0 in
11:49 74.8 °F 58.1 °F 30.33 in SW 2.2 mph -999.0 mph 56 % 0 in
12:04 75.9 °F 59.6 °F 30.33 in NNE 3.7 mph -999.0 mph 57 % 0 in
12:19 76.3 °F 58.4 °F 30.33 in NW 3.2 mph -999.0 mph 54 % 0 in
12:35 76.8 °F 57.8 °F 30.33 in WNW 4.7 mph -999.0 mph 52 % 0 in
12:50 77.9 °F 58.9 °F 30.32 in West 1.7 mph -999.0 mph 52 % 0 in
13:05 78.8 °F 58.0 °F 30.32 in WNW 6.3 mph -999.0 mph 49 % 0 in
13:20 78.4 °F 57.7 °F 30.31 in SSE 2.2 mph -999.0 mph 49 % 0 in
13:36 78.8 °F 58.6 °F 30.31 in East 4.7 mph -999.0 mph 50 % 0 in
14:06 77.4 °F 58.4 °F 30.31 in North 9.9 mph -999.0 mph 52 % 0 in
14:22 77.9 °F 58.9 °F 30.30 in WNW 3.7 mph -999.0 mph 52 % 0 in
14:37 77.2 °F 58.2 °F 30.30 in SSW 2.7 mph -999.0 mph 52 % 0 in
14:52 77.2 °F 57.7 °F 30.29 in NW 2.2 mph -999.0 mph 51 % 0 in
15:07 77.2 °F 58.2 °F 30.29 in NNW 2.2 mph -999.0 mph 52 % 0 in
15:22 76.8 °F 57.3 °F 30.29 in WNW 2.7 mph -999.0 mph 51 % 0 in
15:38 77.0 °F 58.0 °F 30.29 in NNE 4.7 mph -999.0 mph 52 % 0 in
15:53 76.6 °F 58.2 °F 30.29 in SW 1.7 mph -999.0 mph 53 % 0 in
16:08 74.5 °F 57.3 °F 30.28 in East 6.3 mph -999.0 mph 55 % 0 in
16:23 75.4 °F 57.1 °F 30.28 in SW 2.2 mph -999.0 mph 53 % 0 in
16:38 75.6 °F 56.7 °F 30.28 in West 3.7 mph -999.0 mph 52 % 0 in
16:54 77.0 °F 56.4 °F 30.28 in NNW 4.2 mph -999.0 mph 49 % 0 in
17:09 77.9 °F 56.1 °F 30.27 in South 2.7 mph -999.0 mph 47 % 0 in
17:24 79.5 °F 56.3 °F 30.27 in SSW 3.7 mph -999.0 mph 45 % 0 in
17:39 78.1 °F 56.2 °F 30.27 in West 3.7 mph -999.0 mph 47 % 0 in
17:55 76.5 °F 56.5 °F 30.27 in NW 4.7 mph -999.0 mph 50 % 0 in
18:10 76.1 °F 56.1 °F 30.27 in Calm   -999.0 mph 50 % 0 in
18:25 75.4 °F 55.5 °F 30.27 in SE 1.7 mph -999.0 mph 50 % 0 in
18:40 74.3 °F 56.1 °F 30.27 in WNW 2.2 mph -999.0 mph 53 % 0 in
18:55 71.2 °F 53.7 °F 30.27 in NW 2.2 mph -999.0 mph 54 % 0 in
19:11 69.6 °F 53.2 °F 30.27 in WNW 1.1 mph -999.0 mph 56 % 0 in
19:26 66.9 °F 52.6 °F 30.27 in Calm   -999.0 mph 60 % 0 in
19:41 65.3 °F 54.5 °F 30.27 in ENE 1.7 mph -999.0 mph 68 % 0 in
19:56 64.2 °F 54.6 °F 30.27 in Calm   -999.0 mph 71 % 0 in
20:42 61.5 °F 46.1 °F 30.28 in SSE 1.1 mph -999.0 mph 57 % 0 in
20:57 61.0 °F 46.1 °F 30.28 in Calm   -999.0 mph 58 % 0 in
21:12 60.4 °F 45.6 °F 30.29 in Calm   -999.0 mph 58 % 0 in
21:27 60.4 °F 43.7 °F 30.29 in Calm   -999.0 mph 54 % 0 in
21:43 60.1 °F 43.4 °F 30.29 in Calm   -999.0 mph 54 % 0 in
21:58 59.7 °F 43.5 °F 30.29 in WSW 1.7 mph -999.0 mph 55 % 0 in
22:13 59.5 °F 43.3 °F 30.29 in SSE 2.2 mph -999.0 mph 55 % 0 in
22:28 59.9 °F 42.7 °F 30.29 in South 2.2 mph -999.0 mph 53 % 0 in
22:43 59.4 °F 44.2 °F 30.29 in Calm   -999.0 mph 57 % 0 in
22:59 59.4 °F 44.2 °F 30.29 in Calm   -999.0 mph 57 % 0 in
23:14 59.4 °F 43.2 °F 30.29 in SSE 1.7 mph -999.0 mph 55 % 0 in
23:29 58.8 °F 41.2 °F 30.29 in Calm   -999.0 mph 52 % 0 in
23:44 58.6 °F 43.9 °F 30.29 in South 1.7 mph -999.0 mph 58 % 0 in
Big Bear CA Weather
Compliments of Weather Underground - 1.5 mb